createdAt,value
2023-01-25T05:33:43.410Z,99573.59
2023-01-25T05:38:45.059Z,99575.44
2023-01-25T05:43:49.873Z,99566.66
2023-01-25T05:48:51.696Z,99563.56
2023-01-25T05:53:57.144Z,99558.78
2023-01-25T05:59:00.660Z,99566.59
2023-01-25T06:04:02.785Z,99545.78
2023-01-25T06:09:04.417Z,99558.97
2023-01-25T06:14:06.115Z,99569.25
2023-01-25T06:19:08.678Z,99558.63
2023-01-25T06:24:10.559Z,99564.47
2023-01-25T06:29:12.237Z,99568.25
2023-01-25T06:34:13.926Z,99571.22
2023-01-25T06:39:15.788Z,99566.25
2023-01-25T06:44:17.605Z,99558.69
2023-01-25T06:49:19.323Z,99569.53
2023-01-25T06:54:21.009Z,99563.31
2023-01-25T06:59:22.693Z,99554.53
2023-01-25T07:04:24.356Z,99559.50
2023-01-25T07:09:26.113Z,99555.31
2023-01-25T07:14:28.461Z,99550.56
2023-01-25T07:19:30.201Z,99552.66
2023-01-25T07:24:31.986Z,99545.59
2023-01-25T07:29:33.685Z,99538.25
2023-01-25T07:34:35.512Z,99544.88
2023-01-25T07:39:37.425Z,99533.41
2023-01-25T07:44:39.227Z,99537.97
2023-01-25T07:49:40.962Z,99543.03
2023-01-25T07:54:42.762Z,99536.00
2023-01-25T07:59:44.410Z,99549.19
2023-01-25T08:04:46.277Z,99543.91
2023-01-25T08:09:47.934Z,99535.28
2023-01-25T08:14:50.792Z,99552.13
2023-01-25T08:19:52.435Z,99561.56
2023-01-25T08:24:54.988Z,99557.06
2023-01-25T08:29:56.877Z,99553.66
2023-01-25T08:34:58.946Z,99538.16
2023-01-25T08:40:01.083Z,99533.41
2023-01-25T08:45:03.069Z,99542.94
2023-01-25T08:50:05.753Z,99531.63
2023-01-25T08:55:07.976Z,99529.81
2023-01-25T09:00:12.092Z,99536.50
2023-01-25T09:05:14.103Z,99530.66
2023-01-25T09:10:16.041Z,99515.78
2023-01-25T09:15:17.715Z,99463.63
2023-01-25T09:20:19.524Z,99510.34
2023-01-25T09:25:21.242Z,99498.22
2023-01-25T09:30:33.581Z,99503.72
2023-01-25T09:35:35.795Z,99501.84
2023-01-25T09:40:40.523Z,99498.94
2023-01-25T09:45:43.164Z,99489.38
2023-01-25T09:51:01.886Z,99496.06
2023-01-25T09:56:20.228Z,99492.44
2023-01-25T10:01:39.328Z,99489.03
2023-01-25T10:06:55.032Z,99489.22
2023-01-25T10:12:35.493Z,99484.19
2023-01-25T10:17:41.663Z,99466.59
2023-01-25T10:22:51.359Z,99468.66
2023-01-25T10:28:05.122Z,99463.47
2023-01-25T10:33:19.739Z,99444.03
2023-01-25T10:38:35.457Z,99448.22
2023-01-25T10:43:37.185Z,99433.13
2023-01-25T10:48:39.676Z,99424.06
2023-01-25T10:53:43.569Z,99416.59
2023-01-25T10:58:48.543Z,99399.38
2023-01-25T11:03:50.192Z,99387.28
2023-01-25T11:08:52.087Z,99394.38
2023-01-25T11:13:57.362Z,99385.38
2023-01-25T11:19:01.312Z,99368.06
2023-01-25T11:24:09.470Z,99364.38
2023-01-25T11:29:16.010Z,99358.34
2023-01-25T11:34:35.867Z,99335.16
2023-01-25T11:39:55.396Z,99334.59
2023-01-25T11:45:23.307Z,99306.53
2023-01-25T11:50:31.266Z,99296.56
2023-01-25T11:55:58.585Z,99292.59
2023-01-25T12:01:08.133Z,99279.09
2023-01-25T12:06:12.796Z,99270.66
2023-01-25T12:11:39.468Z,99267.84
2023-01-25T12:16:50.146Z,99267.41
2023-01-25T12:22:19.814Z,99262.13
2023-01-25T12:27:42.915Z,99251.19
2023-01-25T12:33:02.289Z,99248.19
2023-01-25T12:38:13.287Z,99237.56
2023-01-25T12:43:20.717Z,99213.06
2023-01-25T12:48:31.786Z,99205.78
2023-01-25T12:53:41.466Z,99211.78
2023-01-25T12:59:08.522Z,99209.03
2023-01-25T13:04:44.912Z,99188.19
2023-01-25T13:10:13.882Z,99192.44
2023-01-25T13:15:38.828Z,99179.75
2023-01-25T13:20:40.399Z,99168.31
2023-01-25T13:25:42.073Z,99160.41
2023-01-25T13:30:53.269Z,99175.63
2023-01-25T13:35:55.129Z,99168.44
2023-01-25T13:41:05.210Z,99145.78
2023-01-25T13:46:10.272Z,99164.06
2023-01-25T13:51:17.048Z,99153.41
2023-01-25T13:56:27.732Z,99144.97
2023-01-25T14:01:31.929Z,99150.03
2023-01-25T14:06:41.538Z,99137.94
2023-01-25T14:11:54.909Z,99143.47
2023-01-25T14:17:09.472Z,99145.97
2023-01-25T14:22:25.046Z,99142.22
2023-01-25T14:27:26.783Z,99132.66
2023-01-25T14:32:28.916Z,99128.78
2023-01-25T14:37:30.966Z,99114.31
2023-01-25T14:42:32.920Z,99126.28
2023-01-25T14:47:35.793Z,99116.38
2023-01-25T14:52:39.459Z,99105.59
2023-01-25T14:57:41.817Z,99108.09
2023-01-25T15:02:56.814Z,99084.66
2023-01-25T15:08:07.811Z,99099.28
2023-01-25T15:13:14.442Z,99089.22
2023-01-25T15:18:46.285Z,99088.38
2023-01-25T15:23:49.925Z,99068.50
2023-01-25T15:28:54.279Z,99065.16
2023-01-25T15:33:57.512Z,99068.78
2023-01-25T15:38:59.827Z,99052.78
2023-01-25T15:44:01.547Z,99042.44
2023-01-25T15:49:06.370Z,99045.56
2023-01-25T15:54:09.079Z,99048.91
2023-01-25T15:59:18.692Z,99045.16
2023-01-25T16:04:20.579Z,99034.78
2023-01-25T16:09:25.232Z,99036.31
2023-01-25T16:14:31.790Z,99043.31
2023-01-25T16:19:34.315Z,99029.31
2023-01-25T16:24:39.442Z,99032.06
2023-01-25T16:29:41.285Z,99026.34
2023-01-25T16:34:43.375Z,99012.59
2023-01-25T16:39:45.464Z,99015.75
2023-01-25T16:44:47.447Z,99014.03
2023-01-25T16:49:49.241Z,99011.84
2023-01-25T16:54:50.874Z,98994.66
2023-01-25T16:59:52.509Z,99002.03
2023-01-25T17:04:54.533Z,98994.91
2023-01-25T17:09:56.171Z,98987.19
2023-01-25T17:14:59.697Z,98982.72
2023-01-25T17:20:01.693Z,98969.63
2023-01-25T17:25:07.260Z,98968.66
2023-01-25T17:30:09.788Z,98974.91
2023-01-25T17:35:11.759Z,98975.59
2023-01-25T17:40:14.518Z,98952.53
2023-01-25T17:45:17.441Z,98945.53
2023-01-25T17:50:19.272Z,98944.72
2023-01-25T17:55:21.048Z,98930.59
2023-01-25T18:00:23.216Z,98923.47
2023-01-25T18:05:27.515Z,98918.44
2023-01-25T18:10:29.158Z,98913.28
2023-01-25T18:15:31.005Z,98921.63
2023-01-25T18:20:32.893Z,98908.22
2023-01-25T18:25:36.414Z,98898.81
2023-01-25T18:30:51.862Z,98904.66
2023-01-25T18:35:54.650Z,98896.25
2023-01-25T18:40:56.957Z,98891.22
2023-01-25T18:45:59.609Z,98889.50
2023-01-25T18:51:09.116Z,98888.81
2023-01-25T18:56:16.323Z,98876.41
2023-01-25T19:01:20.377Z,98870.53
2023-01-25T19:06:22.040Z,98867.34
2023-01-25T19:11:24.137Z,98847.22
2023-01-25T19:16:26.103Z,98839.59
2023-01-25T19:21:28.280Z,98832.38
2023-01-25T19:26:30.509Z,98835.34
2023-01-25T19:31:32.661Z,98819.81
2023-01-25T19:36:36.414Z,98811.13
2023-01-25T19:41:40.536Z,98807.31
2023-01-25T19:46:42.957Z,98801.56
2023-01-25T19:51:48.904Z,98793.66
2023-01-25T19:56:50.810Z,98773.25
2023-01-25T20:01:52.738Z,98759.28
2023-01-25T20:06:54.526Z,98781.28
2023-01-25T20:11:57.613Z,98773.44
2023-01-25T20:16:59.307Z,98772.53
2023-01-25T20:22:01.545Z,98765.22
2023-01-25T20:27:04.449Z,98769.97
2023-01-25T20:32:06.802Z,98761.88
2023-01-25T20:37:09.695Z,98739.84
2023-01-25T20:42:11.373Z,98734.47
2023-01-25T20:47:13.067Z,98743.19
2023-01-25T20:52:14.764Z,98726.50
